Fisher, Pennsylvania
Current Conditions -  °F | °C
As of 3:53 AM on Monday 24 Nov 2014 (Local Time) from KDUJ Reporting Station
Overcast Overcast  
Wind Chill: 52°   Ceiling: 4700
Heat Index: 52°   Visibility: 10mi
Dew Point: 49°   Wind: 12mph
Humidity: 89%   Direction: 150°SSE
Pressure: 29.44"   Gusts: 25mph
Location:  41.26°N, 79.24°W
Report Text: KDUJ 240853Z AUTO 15010G22KT 10SM SCT014 OVC047 11/09 A2944 RMK AO2 SLP965 60014 T01110094 58025
Loading
Personal Weather Stations






























Interactive Weather Map New forecast layout! Learn more

10-Day Weather Forecast

Advertisements
Track Severe Weather on mobile